Time,TemperatureF,DewpointF,PressureIn,WindDirection,WindDirectionDegrees,WindSpeedMPH,WindSpeedGustMPH,Humidity,HourlyPrecipIn,Conditions,Clouds,dailyrainin,SoftwareType,DateUTC
2013-08-24 00:02:00,50.3,47.0,29.69,NNW,327,9.0,-999.0,89,-99.99,,,0.00,weatherlink.com 1.10,2013-08-24 06:02:00,
2013-08-24 00:17:00,50.2,47.0,29.69,NW,312,14.0,-999.0,89,-99.99,,,0.01,weatherlink.com 1.10,2013-08-24 06:17:00,
2013-08-24 00:32:00,50.3,47.0,29.68,NNW,332,10.0,-999.0,88,-99.99,,,0.01,weatherlink.com 1.10,2013-08-24 06:32:00,
2013-08-24 00:47:00,50.2,47.0,29.68,NNW,339,0.0,-999.0,88,-99.99,,,0.01,weatherlink.com 1.10,2013-08-24 06:47:00,
2013-08-24 01:02:00,50.4,46.0,29.67,WNW,290,4.0,-999.0,86,-99.99,,,0.01,weatherlink.com 1.10,2013-08-24 07:02:00,
2013-08-24 01:17:00,50.6,46.0,29.67,West,267,0.0,-999.0,84,-99.99,,,0.01,weatherlink.com 1.10,2013-08-24 07:17:00,
2013-08-24 01:32:00,51.0,44.0,29.66,NNW,338,0.0,-999.0,78,-99.99,,,0.01,weatherlink.com 1.10,2013-08-24 07:32:00,
2013-08-24 01:47:00,51.6,45.0,29.65,WNW,283,3.0,-999.0,78,-99.99,,,0.01,weatherlink.com 1.10,2013-08-24 07:47:00,
2013-08-24 02:02:00,51.4,45.0,29.65,WNW,297,3.0,-999.0,78,-99.99,,,0.01,weatherlink.com 1.10,2013-08-24 08:02:00,
2013-08-24 02:17:00,51.6,44.0,29.65,WNW,297,2.0,-999.0,74,-99.99,,,0.01,weatherlink.com 1.10,2013-08-24 08:17:00,
2013-08-24 02:32:00,52.1,44.0,29.65,WNW,296,0.0,-999.0,74,-99.99,,,0.01,weatherlink.com 1.10,2013-08-24 08:32:00,
2013-08-24 02:47:00,52.2,43.0,29.65,WNW,296,0.0,-999.0,72,-99.99,,,0.01,weatherlink.com 1.10,2013-08-24 08:47:00,
2013-08-24 03:02:00,52.3,43.0,29.66,WNW,296,2.0,-999.0,71,-99.99,,,0.01,weatherlink.com 1.10,2013-08-24 09:02:00,
2013-08-24 03:17:00,52.4,43.0,29.66,NNW,331,6.0,-999.0,71,-99.99,,,0.01,weatherlink.com 1.10,2013-08-24 09:17:00,
2013-08-24 03:32:00,52.8,42.0,29.66,NNW,331,0.0,-999.0,67,-99.99,,,0.01,weatherlink.com 1.10,2013-08-24 09:32:00,
2013-08-24 03:47:00,53.3,42.0,29.66,NNW,331,0.0,-999.0,66,-99.99,,,0.01,weatherlink.com 1.10,2013-08-24 09:47:00,
2013-08-24 04:02:00,53.7,42.0,29.67,NNW,331,4.0,-999.0,65,-99.99,,,0.01,weatherlink.com 1.10,2013-08-24 10:02:00,
2013-08-24 04:17:00,54.2,42.0,29.67,NNW,331,0.0,-999.0,64,-99.99,,,0.01,weatherlink.com 1.10,2013-08-24 10:17:00,
2013-08-24 04:32:00,54.6,42.0,29.66,NNW,331,0.0,-999.0,62,-99.99,,,0.01,weatherlink.com 1.10,2013-08-24 10:32:00,
2013-08-24 04:47:00,54.7,42.0,29.66,NNW,331,0.0,-999.0,62,-99.99,,,0.01,weatherlink.com 1.10,2013-08-24 10:47:00,
2013-08-24 05:02:00,54.7,42.0,29.67,NNW,331,0.0,-999.0,62,-99.99,,,0.01,weatherlink.com 1.10,2013-08-24 11:02:00,
2013-08-24 05:17:00,55.3,41.0,29.67,NNW,331,0.0,-999.0,59,-99.99,,,0.01,weatherlink.com 1.10,2013-08-24 11:17:00,
2013-08-24 05:32:00,55.7,41.0,29.67,NNW,331,0.0,-999.0,58,-99.99,,,0.01,weatherlink.com 1.10,2013-08-24 11:32:00,
2013-08-24 05:47:00,55.0,41.0,29.68,NNW,331,3.0,-999.0,59,-99.99,,,0.01,weatherlink.com 1.10,2013-08-24 11:47:00,
2013-08-24 06:03:00,55.0,41.0,29.68,NNW,332,1.0,-999.0,59,-99.99,,,0.01,weatherlink.com 1.10,2013-08-24 12:03:00,
2013-08-24 06:18:00,55.5,41.0,29.68,NNW,331,4.0,-999.0,58,-99.99,,,0.01,weatherlink.com 1.10,2013-08-24 12:18:00,
2013-08-24 06:33:00,56.3,41.0,29.68,SW,227,0.0,-999.0,57,-99.99,,,0.01,weatherlink.com 1.10,2013-08-24 12:33:00,
2013-08-24 06:48:00,56.5,42.0,29.69,NNW,335,6.0,-999.0,58,-99.99,,,0.01,weatherlink.com 1.10,2013-08-24 12:48:00,
2013-08-24 07:03:00,56.6,41.0,29.69,SW,221,5.0,-999.0,57,-99.99,,,0.01,weatherlink.com 1.10,2013-08-24 13:03:00,
2013-08-24 07:18:00,56.9,42.0,29.69,West,277,4.0,-999.0,59,-99.99,,,0.01,weatherlink.com 1.10,2013-08-24 13:18:00,
2013-08-24 07:33:00,57.4,43.0,29.70,WNW,290,5.0,-999.0,59,-99.99,,,0.01,weatherlink.com 1.10,2013-08-24 13:33:00,
2013-08-24 07:48:00,58.1,44.0,29.70,West,279,7.0,-999.0,60,-99.99,,,0.01,weatherlink.com 1.10,2013-08-24 13:48:00,
2013-08-24 08:03:00,58.9,44.0,29.70,West,275,10.0,-999.0,58,-99.99,,,0.01,weatherlink.com 1.10,2013-08-24 14:03:00,
2013-08-24 08:19:00,59.8,46.0,29.71,WNW,302,10.0,-999.0,60,-99.99,,,0.01,weatherlink.com 1.10,2013-08-24 14:19:00,
2013-08-24 08:34:00,60.1,45.0,29.71,WNW,294,11.0,-999.0,57,-99.99,,,0.01,weatherlink.com 1.10,2013-08-24 14:34:00,
2013-08-24 08:49:00,60.1,46.0,29.70,NW,311,7.0,-999.0,59,-99.99,,,0.01,weatherlink.com 1.10,2013-08-24 14:49:00,
2013-08-24 09:04:00,60.4,45.0,29.71,North,360,14.0,-999.0,57,-99.99,,,0.01,weatherlink.com 1.10,2013-08-24 15:04:00,
2013-08-24 09:19:00,61.0,45.0,29.71,West,274,16.0,-999.0,55,-99.99,,,0.01,weatherlink.com 1.10,2013-08-24 15:19:00,
2013-08-24 09:34:00,61.1,45.0,29.71,West,281,7.0,-999.0,56,-99.99,,,0.01,weatherlink.com 1.10,2013-08-24 15:34:00,
2013-08-24 09:49:00,61.8,46.0,29.72,WNW,296,5.0,-999.0,56,-99.99,,,0.01,weatherlink.com 1.10,2013-08-24 15:49:00,
2013-08-24 10:04:00,62.2,46.0,29.72,WNW,284,9.0,-999.0,55,-99.99,,,0.01,weatherlink.com 1.10,2013-08-24 16:04:00,
2013-08-24 10:19:00,65.4,46.0,29.72,North,360,10.0,-999.0,49,-99.99,,,0.01,weatherlink.com 1.10,2013-08-24 16:19:00,
2013-08-24 10:34:00,68.3,48.0,29.72,SW,217,4.0,-999.0,49,-99.99,,,0.01,weatherlink.com 1.10,2013-08-24 16:34:00,
2013-08-24 10:49:00,70.6,49.0,29.72,NW,305,12.0,-999.0,47,-99.99,,,0.01,weatherlink.com 1.10,2013-08-24 16:49:00,
2013-08-24 11:04:00,71.0,49.0,29.72,West,261,11.0,-999.0,46,-99.99,,,0.01,weatherlink.com 1.10,2013-08-24 17:04:00,
2013-08-24 11:19:00,71.3,49.0,29.72,West,270,16.0,-999.0,45,-99.99,,,0.01,weatherlink.com 1.10,2013-08-24 17:19:00,
2013-08-24 11:34:00,72.2,50.0,29.72,NW,310,14.0,-999.0,46,-99.99,,,0.01,weatherlink.com 1.10,2013-08-24 17:34:00,
2013-08-24 11:49:00,72.3,49.0,29.72,NNW,332,12.0,-999.0,44,-99.99,,,0.01,weatherlink.com 1.10,2013-08-24 17:49:00,
2013-08-24 12:04:00,71.9,49.0,29.72,SW,229,9.0,-999.0,44,-99.99,,,0.01,weatherlink.com 1.10,2013-08-24 18:04:00,
2013-08-24 12:19:00,73.8,52.0,29.72,West,276,15.0,-999.0,46,-99.99,,,0.01,weatherlink.com 1.10,2013-08-24 18:19:00,
2013-08-24 12:34:00,74.5,48.0,29.71,West,267,7.0,-999.0,39,-99.99,,,0.01,weatherlink.com 1.10,2013-08-24 18:34:00,
2013-08-24 12:49:00,72.1,48.0,29.71,West,261,11.0,-999.0,43,-99.99,,,0.01,weatherlink.com 1.10,2013-08-24 18:49:00,
2013-08-24 13:04:00,72.9,50.0,29.71,West,267,3.0,-999.0,45,-99.99,,,0.01,weatherlink.com 1.10,2013-08-24 19:04:00,
2013-08-24 13:19:00,75.9,48.0,29.71,NW,309,6.0,-999.0,37,-99.99,,,0.01,weatherlink.com 1.10,2013-08-24 19:19:00,
2013-08-24 13:34:00,73.5,48.0,29.71,NW,325,3.0,-999.0,40,-99.99,,,0.01,weatherlink.com 1.10,2013-08-24 19:34:00,
2013-08-24 13:49:00,73.2,46.0,29.71,West,267,9.0,-999.0,38,-99.99,,,0.01,weatherlink.com 1.10,2013-08-24 19:49:00,
2013-08-24 14:04:00,75.0,46.0,29.72,West,259,10.0,-999.0,35,-99.99,,,0.01,weatherlink.com 1.10,2013-08-24 20:04:00,
2013-08-24 14:20:00,76.2,46.0,29.71,NW,319,6.0,-999.0,34,-99.99,,,0.01,weatherlink.com 1.10,2013-08-24 20:20:00,
2013-08-24 14:35:00,76.7,45.0,29.72,North,360,3.0,-999.0,32,-99.99,,,0.01,weatherlink.com 1.10,2013-08-24 20:35:00,
2013-08-24 14:50:00,75.6,44.0,29.72,WNW,303,6.0,-999.0,33,-99.99,,,0.01,weatherlink.com 1.10,2013-08-24 20:50:00,
2013-08-24 15:05:00,73.5,46.0,29.71,SSW,200,9.0,-999.0,38,-99.99,,,0.01,weatherlink.com 1.10,2013-08-24 21:05:00,
2013-08-24 15:20:00,70.7,48.0,29.72,SSE,159,3.0,-999.0,45,-99.99,,,0.01,weatherlink.com 1.10,2013-08-24 21:20:00,
2013-08-24 15:35:00,69.2,49.0,29.71,SSE,162,4.0,-999.0,49,-99.99,,,0.01,weatherlink.com 1.10,2013-08-24 21:35:00,
2013-08-24 15:50:00,69.2,49.0,29.70,SSE,159,4.0,-999.0,48,-99.99,,,0.01,weatherlink.com 1.10,2013-08-24 21:50:00,
2013-08-24 16:04:00,70.2,48.0,29.70,SSE,150,0.0,-999.0,45,-99.99,,,0.01,weatherlink.com 1.10,2013-08-24 22:04:00,
2013-08-24 16:20:00,71.3,48.0,29.70,SSE,153,7.0,-999.0,44,-99.99,,,0.01,weatherlink.com 1.10,2013-08-24 22:20:00,
2013-08-24 16:35:00,72.9,48.0,29.70,SE,136,7.0,-999.0,42,-99.99,,,0.01,weatherlink.com 1.10,2013-08-24 22:35:00,
2013-08-24 16:50:00,71.5,47.0,29.69,North,360,10.0,-999.0,42,-99.99,,,0.01,weatherlink.com 1.10,2013-08-24 22:50:00,
2013-08-24 17:05:00,70.3,47.0,29.69,South,186,7.0,-999.0,44,-99.99,,,0.01,weatherlink.com 1.10,2013-08-24 23:05:00,
2013-08-24 17:20:00,70.3,47.0,29.69,South,175,0.0,-999.0,44,-99.99,,,0.01,weatherlink.com 1.10,2013-08-24 23:20:00,
2013-08-24 17:35:00,70.7,48.0,29.69,SSE,150,6.0,-999.0,44,-99.99,,,0.01,weatherlink.com 1.10,2013-08-24 23:35:00,
2013-08-24 17:50:00,70.7,48.0,29.69,SE,134,0.0,-999.0,44,-99.99,,,0.01,weatherlink.com 1.10,2013-08-24 23:50:00,
2013-08-24 18:05:00,70.4,47.0,29.70,SSE,153,3.0,-999.0,43,-99.99,,,0.01,weatherlink.com 1.10,2013-08-25 00:05:00,
2013-08-24 18:20:00,68.9,46.0,29.69,SE,135,3.0,-999.0,44,-99.99,,,0.01,weatherlink.com 1.10,2013-08-25 00:20:00,
2013-08-24 18:35:00,66.9,46.0,29.69,North,360,4.0,-999.0,48,-99.99,,,0.01,weatherlink.com 1.10,2013-08-25 00:35:00,
2013-08-24 18:50:00,65.4,46.0,29.69,SE,144,0.0,-999.0,49,-99.99,,,0.01,weatherlink.com 1.10,2013-08-25 00:50:00,
2013-08-24 19:05:00,64.4,45.0,29.69,SSE,150,5.0,-999.0,50,-99.99,,,0.01,weatherlink.com 1.10,2013-08-25 01:05:00,
2013-08-24 19:20:00,64.0,45.0,29.70,SSE,153,0.0,-999.0,51,-99.99,,,0.01,weatherlink.com 1.10,2013-08-25 01:20:00,
2013-08-24 19:35:00,63.9,45.0,29.70,SSE,160,0.0,-999.0,51,-99.99,,,0.01,weatherlink.com 1.10,2013-08-25 01:35:00,
2013-08-24 19:50:00,63.7,45.0,29.71,SSE,159,5.0,-999.0,51,-99.99,,,0.01,weatherlink.com 1.10,2013-08-25 01:50:00,
2013-08-24 20:05:00,63.2,46.0,29.72,SSE,159,3.0,-999.0,54,-99.99,,,0.01,weatherlink.com 1.10,2013-08-25 02:05:00,
2013-08-24 20:20:00,62.6,46.0,29.72,SE,125,9.0,-999.0,56,-99.99,,,0.01,weatherlink.com 1.10,2013-08-25 02:20:00,
2013-08-24 20:35:00,62.2,47.0,29.73,SSE,165,3.0,-999.0,57,-99.99,,,0.01,weatherlink.com 1.10,2013-08-25 02:35:00,
2013-08-24 20:50:00,61.6,47.0,29.74,SSE,161,6.0,-999.0,60,-99.99,,,0.01,weatherlink.com 1.10,2013-08-25 02:50:00,
2013-08-24 21:05:00,60.3,50.0,29.75,SSE,153,0.0,-999.0,70,-99.99,,,0.01,weatherlink.com 1.10,2013-08-25 03:05:00,
2013-08-24 21:20:00,58.1,49.0,29.77,NW,305,3.0,-999.0,72,-99.99,,,0.02,weatherlink.com 1.10,2013-08-25 03:20:00,
2013-08-24 21:50:00,53.5,49.0,29.78,NW,306,12.0,-999.0,83,-99.99,,,0.04,weatherlink.com 1.10,2013-08-25 03:50:00,
2013-08-24 22:05:00,52.4,48.0,29.77,NW,304,16.0,-999.0,85,-99.99,,,0.04,weatherlink.com 1.10,2013-08-25 04:05:00,
2013-08-24 22:20:00,52.0,48.0,29.78,West,281,9.0,-999.0,85,-99.99,,,0.04,weatherlink.com 1.10,2013-08-25 04:20:00,
2013-08-24 22:35:00,52.2,47.0,29.77,NW,321,14.0,-999.0,83,-99.99,,,0.04,weatherlink.com 1.10,2013-08-25 04:35:00,
2013-08-24 22:50:00,52.5,47.0,29.77,West,268,8.0,-999.0,81,-99.99,,,0.04,weatherlink.com 1.10,2013-08-25 04:50:00,
2013-08-24 23:05:00,53.1,47.0,29.76,North,360,4.0,-999.0,79,-99.99,,,0.04,weatherlink.com 1.10,2013-08-25 05:05:00,
2013-08-24 23:20:00,53.2,47.0,29.77,North,360,6.0,-999.0,78,-99.99,,,0.04,weatherlink.com 1.10,2013-08-25 05:20:00,
2013-08-24 23:35:00,53.4,46.0,29.76,WNW,295,1.0,-999.0,75,-99.99,,,0.04,weatherlink.com 1.10,2013-08-25 05:35:00,
2013-08-24 23:50:00,53.6,46.0,29.76,North,360,6.0,-999.0,76,-99.99,,,0.04,weatherlink.com 1.10,2013-08-25 05:50:00,